createdAt,value
2019-03-15T00:01:50.906Z,100338.05
2019-03-15T00:04:23.620Z,100349.55
2019-03-15T00:07:09.638Z,100350.81
2019-03-15T00:09:40.341Z,100355.22
2019-03-15T00:12:12.032Z,100363.27
2019-03-15T00:14:43.746Z,100374.71
2019-03-15T00:17:14.345Z,100367.14
2019-03-15T00:19:51.871Z,100375.91
2019-03-15T00:22:22.527Z,100377.94
2019-03-15T00:24:55.243Z,100374.01
2019-03-15T00:27:25.886Z,100369.09
2019-03-15T00:29:56.555Z,100371.73
2019-03-15T00:32:28.253Z,100374.41
2019-03-15T00:34:58.839Z,100373.46
2019-03-15T00:37:29.428Z,100370.77
2019-03-15T00:40:00.286Z,100369.59
2019-03-15T00:42:30.735Z,100377.47
2019-03-15T00:45:01.313Z,100383.30
2019-03-15T00:47:31.976Z,100387.86
2019-03-15T00:50:02.647Z,100394.24
2019-03-15T00:52:33.328Z,100393.70
2019-03-15T00:55:04.091Z,100395.92
2019-03-15T00:57:34.670Z,100381.89
2019-03-15T01:00:07.048Z,100376.75
2019-03-15T01:02:37.690Z,100388.61
2019-03-15T01:05:08.470Z,100387.27
2019-03-15T01:07:39.028Z,100383.27
2019-03-15T01:10:09.729Z,100388.66
2019-03-15T01:12:40.471Z,100389.17
2019-03-15T01:15:13.313Z,100383.25
2019-03-15T01:17:43.971Z,100382.13
2019-03-15T01:20:14.675Z,100377.55
2019-03-15T01:22:45.286Z,100373.90
2019-03-15T01:25:15.919Z,100376.58
2019-03-15T01:27:46.660Z,100381.41
2019-03-15T01:30:24.832Z,100376.05
2019-03-15T01:32:55.505Z,100382.90
2019-03-15T01:35:34.279Z,100382.02
2019-03-15T01:38:05.969Z,100381.03
2019-03-15T01:41:08.665Z,100373.13
2019-03-15T01:43:39.418Z,100376.59
2019-03-15T01:46:10.002Z,100375.11
2019-03-15T01:48:42.599Z,100369.88
2019-03-15T01:51:26.486Z,100367.69
2019-03-15T01:53:57.112Z,100360.14
2019-03-15T01:56:27.711Z,100359.45
2019-03-15T01:59:00.295Z,100361.18
2019-03-15T02:01:31.063Z,100355.18
2019-03-15T02:04:01.743Z,100357.77
2019-03-15T02:07:00.889Z,100350.38
2019-03-15T02:09:31.463Z,100354.52
2019-03-15T02:12:02.045Z,100342.41
2019-03-15T02:14:33.680Z,100336.06
2019-03-15T02:17:04.345Z,100337.10
2019-03-15T02:19:35.429Z,100343.03
2019-03-15T02:22:19.202Z,100338.41
2019-03-15T02:24:49.779Z,100338.30
2019-03-15T02:27:20.612Z,100333.95
2019-03-15T02:29:51.195Z,100336.09
2019-03-15T02:32:21.853Z,100341.47
2019-03-15T02:34:53.373Z,100333.17
2019-03-15T02:37:24.295Z,100335.48
2019-03-15T02:39:54.787Z,100340.86
2019-03-15T02:42:26.212Z,100336.09
2019-03-15T02:44:58.043Z,100328.61
2019-03-15T02:47:28.624Z,100316.62
2019-03-15T02:50:01.294Z,100309.81
2019-03-15T02:52:39.703Z,100319.23
2019-03-15T02:55:15.619Z,100310.94
2019-03-15T02:57:52.401Z,100320.75
2019-03-15T03:00:23.151Z,100308.48
2019-03-15T03:02:54.189Z,100319.09
2019-03-15T03:05:24.867Z,100328.52
2019-03-15T03:07:56.909Z,100318.52
2019-03-15T03:10:29.325Z,100322.64
2019-03-15T03:13:15.368Z,100323.46
2019-03-15T03:15:46.001Z,100325.33
2019-03-15T03:18:27.121Z,100324.30
2019-03-15T03:21:01.412Z,100318.56
2019-03-15T03:23:32.170Z,100308.63
2019-03-15T03:26:02.760Z,100294.77
2019-03-15T03:28:33.405Z,100290.36
2019-03-15T03:31:15.434Z,100296.20
2019-03-15T03:33:45.146Z,100295.13
2019-03-15T03:36:16.396Z,100292.05
2019-03-15T03:38:57.420Z,100297.54
2019-03-15T03:41:28.325Z,100293.16
2019-03-15T03:47:12.848Z,100295.83
2019-03-15T03:49:43.563Z,100285.82
2019-03-15T03:52:14.298Z,100282.98
2019-03-15T03:54:44.952Z,100278.06
2019-03-15T03:57:15.599Z,100273.45
2019-03-15T04:00:01.349Z,100269.34
2019-03-15T04:02:35.182Z,100269.52
2019-03-15T04:05:06.204Z,100262.09
2019-03-15T04:07:36.792Z,100268.72
2019-03-15T04:10:07.668Z,100258.92
2019-03-15T04:12:38.283Z,100257.22
2019-03-15T04:15:11.078Z,100249.05
2019-03-15T04:17:54.347Z,100250.92
2019-03-15T04:20:25.980Z,100249.17
2019-03-15T04:22:56.862Z,100248.73
2019-03-15T04:25:27.648Z,100256.16
2019-03-15T04:27:58.290Z,100259.62
2019-03-15T04:30:28.913Z,100265.21
2019-03-15T04:33:16.009Z,100277.28
2019-03-15T04:35:46.763Z,100265.34
2019-03-15T04:38:17.439Z,100261.41
2019-03-15T04:40:57.857Z,100261.31
2019-03-15T04:43:28.604Z,100259.97
2019-03-15T04:45:59.199Z,100251.83
2019-03-15T04:48:33.124Z,100250.46
2019-03-15T04:51:03.660Z,100251.33
2019-03-15T04:53:34.296Z,100249.89
2019-03-15T04:56:04.934Z,100246.77
2019-03-15T04:58:36.585Z,100242.06
2019-03-15T05:01:07.206Z,100229.58
2019-03-15T05:03:37.859Z,100238.10
2019-03-15T05:06:08.583Z,100245.53
2019-03-15T05:08:51.604Z,100249.02
2019-03-15T05:11:24.292Z,100242.06
2019-03-15T05:13:58.610Z,100234.17
2019-03-15T05:16:32.198Z,100230.55
2019-03-15T05:19:04.777Z,100233.67
2019-03-15T05:21:35.404Z,100237.48
2019-03-15T05:24:06.007Z,100225.09
2019-03-15T05:26:36.665Z,100216.16
2019-03-15T05:29:07.302Z,100209.39
2019-03-15T05:31:37.889Z,100214.89
2019-03-15T05:34:29.655Z,100202.03
2019-03-15T05:37:08.224Z,100199.63
2019-03-15T05:39:52.338Z,100192.67
2019-03-15T05:42:22.935Z,100197.67
2019-03-15T05:45:07.567Z,100201.38
2019-03-15T05:47:43.804Z,100197.38
2019-03-15T05:50:16.500Z,100201.09
2019-03-15T05:52:47.232Z,100177.94
2019-03-15T05:55:19.012Z,100182.02
2019-03-15T05:57:49.598Z,100163.89
2019-03-15T06:00:41.387Z,100166.80
2019-03-15T06:03:16.857Z,100171.69
2019-03-15T06:05:57.399Z,100171.38
2019-03-15T06:08:28.062Z,100178.71
2019-03-15T06:10:58.681Z,100167.20
2019-03-15T06:13:29.354Z,100167.00
2019-03-15T06:16:00.101Z,100155.84
2019-03-15T06:18:30.725Z,100170.51
2019-03-15T06:21:06.406Z,100161.64
2019-03-15T06:23:44.384Z,100158.33
2019-03-15T06:26:16.326Z,100159.41
2019-03-15T06:28:47.038Z,100153.78
2019-03-15T06:31:17.753Z,100152.48
2019-03-15T06:33:48.730Z,100151.82
2019-03-15T06:36:20.436Z,100153.21
2019-03-15T06:38:53.087Z,100160.48
2019-03-15T06:41:23.749Z,100156.81
2019-03-15T06:43:54.415Z,100156.36
2019-03-15T06:46:25.167Z,100153.99
2019-03-15T06:48:55.784Z,100157.97
2019-03-15T06:51:28.427Z,100151.66
2019-03-15T06:54:10.761Z,100150.31
2019-03-15T06:56:32.464Z,100148.24
2019-03-15T06:59:03.151Z,100142.94
2019-03-15T07:01:34.834Z,100140.25
2019-03-15T07:04:07.548Z,100140.00
2019-03-15T07:06:38.168Z,100125.83
2019-03-15T07:09:08.832Z,100122.73
2019-03-15T07:11:43.448Z,100118.56
2019-03-15T07:14:14.161Z,100118.16
2019-03-15T07:16:46.935Z,100121.84
2019-03-15T07:19:26.101Z,100118.31
2019-03-15T07:21:51.030Z,100115.77
2019-03-15T07:24:27.072Z,100110.18
2019-03-15T07:26:57.648Z,100100.50
2019-03-15T07:29:30.173Z,100103.06
2019-03-15T07:32:15.822Z,100095.34
2019-03-15T07:34:59.098Z,100086.52
2019-03-15T07:37:36.943Z,100075.22
2019-03-15T07:40:08.213Z,100065.81
2019-03-15T07:42:43.076Z,100050.14
2019-03-15T07:45:23.566Z,100043.84
2019-03-15T07:48:22.460Z,100052.80
2019-03-15T07:50:48.834Z,100052.00
2019-03-15T07:53:21.506Z,100049.31
2019-03-15T07:55:54.559Z,100046.05
2019-03-15T07:58:36.282Z,100042.09
2019-03-15T08:01:07.034Z,100027.00
2019-03-15T08:03:37.633Z,100030.39
2019-03-15T08:06:14.240Z,100019.83
2019-03-15T08:09:15.887Z,100019.20
2019-03-15T08:11:46.544Z,100015.84
2019-03-15T08:14:17.244Z,100013.37
2019-03-15T08:16:47.919Z,100017.56
2019-03-15T08:19:18.545Z,100004.46
2019-03-15T08:21:52.570Z,100007.35
2019-03-15T08:24:24.187Z,100004.24
2019-03-15T08:26:54.814Z,100014.83
2019-03-15T08:29:31.384Z,100019.30
2019-03-15T08:32:03.067Z,100027.92
2019-03-15T08:34:36.807Z,100027.77
2019-03-15T08:37:09.451Z,100015.94
2019-03-15T08:39:53.357Z,100017.75
2019-03-15T08:42:24.000Z,100028.44
2019-03-15T08:44:54.554Z,100012.44
2019-03-15T08:47:28.772Z,100019.78
2019-03-15T08:49:59.491Z,100022.77
2019-03-15T08:52:30.204Z,100011.67
2019-03-15T08:55:07.319Z,100022.41
2019-03-15T08:57:39.105Z,100004.02
2019-03-15T09:00:12.851Z,100014.39
2019-03-15T09:02:54.134Z,100006.87
2019-03-15T09:05:24.799Z,100019.83
2019-03-15T09:07:55.479Z,100016.97
2019-03-15T09:10:26.160Z,100018.23
2019-03-15T09:12:57.674Z,100008.75
2019-03-15T09:15:34.264Z,100016.08
2019-03-15T09:18:04.961Z,100024.52
2019-03-15T09:20:35.729Z,100022.98
2019-03-15T09:23:07.385Z,100019.73
2019-03-15T09:25:39.047Z,100015.50
2019-03-15T09:28:09.643Z,100019.72
2019-03-15T09:30:52.771Z,100016.93
2019-03-15T09:33:23.534Z,100015.48
2019-03-15T09:35:54.160Z,100015.88
2019-03-15T09:38:26.765Z,100020.48
2019-03-15T09:40:58.521Z,100015.66
2019-03-15T09:43:29.247Z,100010.45
2019-03-15T09:46:16.579Z,100007.39
2019-03-15T09:49:01.435Z,100005.41
2019-03-15T09:51:36.163Z,100009.63
2019-03-15T09:54:06.849Z,100009.67
2019-03-15T09:56:38.548Z,100016.58
2019-03-15T09:59:19.509Z,100018.38
2019-03-15T10:01:50.343Z,100023.57
2019-03-15T10:04:20.974Z,100026.61
2019-03-15T10:06:53.663Z,100026.19
2019-03-15T10:09:24.311Z,100022.14
2019-03-15T10:11:56.451Z,100029.73
2019-03-15T10:14:29.246Z,100021.70
2019-03-15T10:16:59.943Z,100026.19
2019-03-15T10:19:32.548Z,100022.95
2019-03-15T10:22:03.217Z,100025.88
2019-03-15T10:24:33.901Z,100024.97
2019-03-15T10:27:04.574Z,100015.12
2019-03-15T10:29:35.195Z,100017.66
2019-03-15T10:32:11.259Z,100030.81
2019-03-15T10:34:41.930Z,100030.10
2019-03-15T10:37:12.556Z,100037.75
2019-03-15T10:39:45.161Z,100038.15
2019-03-15T10:42:17.025Z,100041.88
2019-03-15T10:44:47.703Z,100037.59
2019-03-15T10:47:18.241Z,100040.33
2019-03-15T10:50:01.637Z,100037.16
2019-03-15T10:52:42.242Z,100035.71
2019-03-15T10:55:24.515Z,100045.51
2019-03-15T10:57:57.375Z,100047.13
2019-03-15T11:00:28.249Z,100054.42
2019-03-15T11:02:58.848Z,100055.72
2019-03-15T11:05:29.606Z,100046.28
2019-03-15T11:08:00.340Z,100046.82
2019-03-15T11:10:31.025Z,100050.78
2019-03-15T11:13:02.623Z,100050.45
2019-03-15T11:15:40.206Z,100064.00
2019-03-15T11:18:10.895Z,100070.63
2019-03-15T11:20:41.565Z,100078.75
2019-03-15T11:23:12.251Z,100079.08
2019-03-15T11:25:44.893Z,100079.29
2019-03-15T11:28:20.560Z,100081.51
2019-03-15T11:30:51.259Z,100074.04
2019-03-15T11:33:22.188Z,100080.72
2019-03-15T11:35:52.845Z,100080.48
2019-03-15T11:38:23.509Z,100080.56
2019-03-15T11:41:00.240Z,100082.45
2019-03-15T11:43:30.819Z,100085.89
2019-03-15T11:46:02.539Z,100093.14
2019-03-15T11:48:33.379Z,100079.77
2019-03-15T11:51:05.137Z,100081.73
2019-03-15T11:53:37.859Z,100073.36
2019-03-15T11:56:09.465Z,100078.54
2019-03-15T11:58:40.220Z,100073.50
2019-03-15T12:01:10.819Z,100070.70
2019-03-15T12:03:52.533Z,100071.26
2019-03-15T12:06:13.906Z,100061.59
2019-03-15T12:08:49.124Z,100065.03
2019-03-15T12:11:19.801Z,100068.09
2019-03-15T12:13:59.201Z,100064.94
2019-03-15T12:16:40.963Z,100074.77
2019-03-15T12:19:11.605Z,100081.13
2019-03-15T12:21:42.277Z,100076.39
2019-03-15T12:24:16.549Z,100064.86
2019-03-15T12:26:55.239Z,100070.13
2019-03-15T12:29:25.834Z,100068.44
2019-03-15T12:31:58.568Z,100070.87
2019-03-15T12:34:31.272Z,100069.32
2019-03-15T12:37:07.701Z,100074.91
2019-03-15T12:39:53.995Z,100098.23
2019-03-15T12:42:29.875Z,100096.93
2019-03-15T12:45:01.537Z,100094.97
2019-03-15T12:47:32.155Z,100085.39
2019-03-15T12:50:02.881Z,100079.98
2019-03-15T12:52:46.568Z,100079.28
2019-03-15T12:55:06.212Z,100081.16
2019-03-15T12:57:37.850Z,100071.95
2019-03-15T13:00:10.868Z,100075.27
2019-03-15T13:02:41.636Z,100075.05
2019-03-15T13:05:13.384Z,100051.97
2019-03-15T13:07:51.209Z,100050.75
2019-03-15T13:10:27.816Z,100054.70
2019-03-15T13:12:58.806Z,100061.33
2019-03-15T13:15:32.042Z,100056.18
2019-03-15T13:18:01.854Z,100054.70
2019-03-15T13:20:32.529Z,100060.11
2019-03-15T13:23:03.218Z,100073.76
2019-03-15T13:25:33.793Z,100073.63
2019-03-15T13:28:06.417Z,100055.28
2019-03-15T13:30:42.216Z,100063.17
2019-03-15T13:33:30.151Z,100062.79
2019-03-15T13:36:06.499Z,100053.42
2019-03-15T13:38:37.214Z,100043.73
2019-03-15T13:41:07.921Z,100047.91
2019-03-15T13:43:38.524Z,100056.03
2019-03-15T13:46:10.477Z,100054.91
2019-03-15T13:48:41.197Z,100059.05
2019-03-15T13:51:13.035Z,100051.20
2019-03-15T13:53:48.712Z,100046.17
2019-03-15T13:56:19.513Z,100048.78
2019-03-15T13:58:57.084Z,100048.05
2019-03-15T14:01:26.647Z,100040.06
2019-03-15T14:03:57.300Z,100039.56
2019-03-15T14:06:27.811Z,100039.70
2019-03-15T14:08:59.538Z,100028.14
2019-03-15T14:11:30.189Z,100041.61
2019-03-15T14:14:07.497Z,100050.94
2019-03-15T14:16:46.164Z,100048.24
2019-03-15T14:19:17.840Z,100047.73
2019-03-15T14:21:48.869Z,100054.61
2019-03-15T14:24:22.640Z,100051.81
2019-03-15T14:26:52.104Z,100048.50
2019-03-15T14:29:23.752Z,100047.50
2019-03-15T14:31:58.681Z,100056.00
2019-03-15T14:34:29.497Z,100050.94
2019-03-15T14:37:02.273Z,100068.29
2019-03-15T14:39:36.282Z,100066.64
2019-03-15T14:42:11.902Z,100054.26
2019-03-15T14:44:42.748Z,100074.05
2019-03-15T14:47:18.569Z,100065.94
2019-03-15T14:49:49.533Z,100062.88
2019-03-15T14:52:33.196Z,100054.52
2019-03-15T14:55:04.152Z,100072.70
2019-03-15T14:57:34.887Z,100071.73
2019-03-15T15:00:16.201Z,100072.25
2019-03-15T15:02:47.002Z,100077.78
2019-03-15T15:05:18.839Z,100063.91
2019-03-15T15:07:49.577Z,100060.95
2019-03-15T15:10:22.478Z,100059.50
2019-03-15T15:12:53.216Z,100061.34
2019-03-15T15:15:25.971Z,100064.16
2019-03-15T15:17:57.772Z,100060.46
2019-03-15T15:20:28.863Z,100066.25
2019-03-15T15:23:22.865Z,100061.08
2019-03-15T15:25:53.645Z,100057.66
2019-03-15T15:28:24.388Z,100057.41
2019-03-15T15:30:55.065Z,100049.54
2019-03-15T15:33:33.723Z,100066.38
2019-03-15T15:36:04.481Z,100071.66
2019-03-15T15:38:36.191Z,100068.22
2019-03-15T15:41:08.887Z,100070.67
2019-03-15T15:43:39.551Z,100087.15
2019-03-15T15:46:13.704Z,100087.91
2019-03-15T15:48:45.363Z,100084.22
2019-03-15T15:51:27.420Z,100086.25
2019-03-15T15:53:59.057Z,100086.53
2019-03-15T15:56:29.786Z,100077.20
2019-03-15T15:59:03.231Z,100074.11
2019-03-15T16:01:34.153Z,100070.94
2019-03-15T16:04:05.839Z,100063.69
2019-03-15T16:06:36.643Z,100058.05
2019-03-15T16:09:08.067Z,100063.58
2019-03-15T16:11:44.360Z,100054.45
2019-03-15T16:14:19.141Z,100070.30
2019-03-15T16:16:49.931Z,100077.45
2019-03-15T16:19:20.759Z,100071.59
2019-03-15T16:21:51.444Z,100059.69
2019-03-15T16:24:23.209Z,100064.74
2019-03-15T16:26:57.052Z,100057.99
2019-03-15T16:29:36.917Z,100053.59
2019-03-15T16:32:07.584Z,100061.69
2019-03-15T16:34:47.252Z,100052.42
2019-03-15T16:37:24.932Z,100049.97
2019-03-15T16:39:58.540Z,100059.50
2019-03-15T16:42:29.298Z,100052.59
2019-03-15T16:45:09.440Z,100053.68
2019-03-15T16:47:41.290Z,100063.39
2019-03-15T16:50:37.842Z,100096.80
2019-03-15T16:53:13.456Z,100110.68
2019-03-15T16:55:45.304Z,100111.67
2019-03-15T16:58:17.053Z,100113.56
2019-03-15T17:00:52.709Z,100118.23
2019-03-15T17:03:27.575Z,100119.73
2019-03-15T17:06:01.931Z,100130.41
2019-03-15T17:08:32.637Z,100137.41
2019-03-15T17:11:03.330Z,100140.10
2019-03-15T17:13:38.283Z,100148.85
2019-03-15T17:16:16.996Z,100150.14
2019-03-15T17:19:01.801Z,100146.78
2019-03-15T17:21:32.683Z,100158.14
2019-03-15T17:24:19.752Z,100162.56
2019-03-15T17:26:51.605Z,100159.94
2019-03-15T17:29:26.475Z,100167.79
2019-03-15T17:31:59.856Z,100175.30
2019-03-15T17:34:44.184Z,100181.84
2019-03-15T17:37:15.069Z,100188.03
2019-03-15T17:39:51.860Z,100200.09
2019-03-15T17:42:32.092Z,100212.98
2019-03-15T17:45:02.959Z,100202.44
2019-03-15T17:47:34.743Z,100205.96
2019-03-15T17:50:06.493Z,100226.47
2019-03-15T17:52:38.039Z,100234.31
2019-03-15T17:55:10.202Z,100228.80
2019-03-15T17:57:46.674Z,100243.81
2019-03-15T18:00:21.661Z,100253.30
2019-03-15T18:02:54.418Z,100266.79
2019-03-15T18:05:41.556Z,100271.98
2019-03-15T18:08:12.434Z,100275.64
2019-03-15T18:10:43.026Z,100280.45
2019-03-15T18:13:13.820Z,100303.89
2019-03-15T18:15:44.657Z,100295.92
2019-03-15T18:18:15.551Z,100303.50
2019-03-15T18:20:46.333Z,100305.41
2019-03-15T18:23:17.067Z,100309.16
2019-03-15T18:25:47.759Z,100308.98
2019-03-15T18:28:20.408Z,100291.67
2019-03-15T18:30:51.111Z,100294.47
2019-03-15T18:33:21.913Z,100296.80
2019-03-15T18:35:54.789Z,100304.66
2019-03-15T18:38:25.455Z,100298.91
2019-03-15T18:40:59.714Z,100296.98
2019-03-15T18:43:36.075Z,100310.92
2019-03-15T18:46:06.812Z,100325.81
2019-03-15T18:48:37.567Z,100333.41
2019-03-15T18:51:18.982Z,100347.06
2019-03-15T18:54:17.332Z,100360.44
2019-03-15T18:56:49.358Z,100362.83
2019-03-15T18:59:20.213Z,100377.45
2019-03-15T19:02:01.739Z,100370.42
2019-03-15T19:04:33.467Z,100366.50
2019-03-15T19:07:06.899Z,100369.37
2019-03-15T19:09:43.892Z,100373.34
2019-03-15T19:12:14.545Z,100376.87
2019-03-15T19:14:45.419Z,100388.91
2019-03-15T19:17:16.184Z,100380.81
2019-03-15T19:19:48.859Z,100380.80
2019-03-15T19:22:19.689Z,100385.03
2019-03-15T19:24:50.421Z,100385.41
2019-03-15T19:27:21.404Z,100391.33
2019-03-15T19:29:56.330Z,100396.34
2019-03-15T19:32:27.363Z,100393.89
2019-03-15T19:35:09.153Z,100397.29
2019-03-15T19:37:40.042Z,100396.45
2019-03-15T19:40:21.344Z,100396.17
2019-03-15T19:42:52.180Z,100415.59
2019-03-15T19:45:23.127Z,100420.77
2019-03-15T19:47:53.747Z,100436.61
2019-03-15T19:50:29.772Z,100439.70
2019-03-15T19:53:37.198Z,100435.33
2019-03-15T19:56:11.341Z,100429.44
2019-03-15T19:58:42.760Z,100447.72
2019-03-15T20:01:13.708Z,100452.32
2019-03-15T20:03:52.795Z,100462.31
2019-03-15T20:06:23.497Z,100472.31
2019-03-15T20:08:54.461Z,100483.55
2019-03-15T20:11:25.296Z,100486.88
2019-03-15T20:13:56.120Z,100488.29
2019-03-15T20:16:27.795Z,100502.81
2019-03-15T20:18:58.621Z,100506.22
2019-03-15T20:21:37.720Z,100504.93
2019-03-15T20:24:08.533Z,100499.49
2019-03-15T20:26:39.621Z,100508.48
2019-03-15T20:29:10.480Z,100496.37
2019-03-15T20:31:44.709Z,100502.79
2019-03-15T20:34:15.505Z,100510.97
2019-03-15T20:36:49.249Z,100507.50
2019-03-15T20:39:20.020Z,100509.92
2019-03-15T20:41:50.703Z,100516.78
2019-03-15T20:44:28.768Z,100522.88
2019-03-15T20:46:56.148Z,100512.58
2019-03-15T20:49:36.415Z,100516.72
2019-03-15T20:52:07.221Z,100524.59
2019-03-15T20:54:39.389Z,100530.44
2019-03-15T20:57:18.304Z,100524.06
2019-03-15T20:59:49.483Z,100517.84
2019-03-15T21:02:20.163Z,100526.91
2019-03-15T21:04:50.831Z,100517.70
2019-03-15T21:07:27.513Z,100524.48
2019-03-15T21:09:58.285Z,100526.03
2019-03-15T21:12:29.036Z,100531.16
2019-03-15T21:15:00.177Z,100532.25
2019-03-15T21:17:40.189Z,100539.19
2019-03-15T21:20:17.477Z,100531.28
2019-03-15T21:22:57.432Z,100534.94
2019-03-15T21:25:28.380Z,100527.69
2019-03-15T21:28:00.106Z,100527.32
2019-03-15T21:30:30.858Z,100521.95
2019-03-15T21:33:01.499Z,100527.75
2019-03-15T21:35:32.290Z,100530.33
2019-03-15T21:38:04.138Z,100535.87
2019-03-15T21:40:39.543Z,100538.24
2019-03-15T21:43:10.339Z,100551.91
2019-03-15T21:45:47.089Z,100546.33
2019-03-15T21:48:28.769Z,100558.50
2019-03-15T21:51:00.337Z,100564.49
2019-03-15T21:53:35.194Z,100555.37
2019-03-15T21:56:08.022Z,100564.80
2019-03-15T21:58:38.697Z,100563.67
2019-03-15T22:01:09.482Z,100574.03
2019-03-15T22:03:46.152Z,100579.81
2019-03-15T22:06:18.869Z,100585.10
2019-03-15T22:08:50.494Z,100589.61
2019-03-15T22:11:21.774Z,100597.05
2019-03-15T22:13:52.824Z,100600.78
2019-03-15T22:16:28.574Z,100593.42
2019-03-15T22:19:18.791Z,100584.48
2019-03-15T22:21:53.486Z,100597.97
2019-03-15T22:24:30.540Z,100600.93
2019-03-15T22:27:01.686Z,100605.69
2019-03-15T22:29:53.760Z,100604.75
2019-03-15T22:32:25.749Z,100590.53
2019-03-15T22:34:56.393Z,100605.69
2019-03-15T22:37:27.400Z,100608.28
2019-03-15T22:40:00.005Z,100603.78
2019-03-15T22:42:30.758Z,100616.50
2019-03-15T22:45:01.372Z,100619.66
2019-03-15T22:47:39.439Z,100607.20
2019-03-15T22:50:16.387Z,100611.23
2019-03-15T22:52:47.703Z,100612.46
2019-03-15T22:55:19.677Z,100616.22
2019-03-15T22:57:59.819Z,100617.94
2019-03-15T23:00:37.945Z,100635.23
2019-03-15T23:03:11.219Z,100631.20
2019-03-15T23:05:42.475Z,100640.84
2019-03-15T23:08:13.308Z,100644.81
2019-03-15T23:10:51.506Z,100644.88
2019-03-15T23:13:30.249Z,100650.00
2019-03-15T23:16:01.489Z,100644.97
2019-03-15T23:18:32.328Z,100641.63
2019-03-15T23:21:03.159Z,100657.67
2019-03-15T23:23:43.627Z,100670.47
2019-03-15T23:26:14.409Z,100668.75
2019-03-15T23:28:47.264Z,100666.94
2019-03-15T23:31:17.697Z,100650.76
2019-03-15T23:34:03.077Z,100652.48
2019-03-15T23:36:34.935Z,100659.18
2019-03-15T23:39:07.057Z,100657.55
2019-03-15T23:41:57.538Z,100657.26
2019-03-15T23:44:28.091Z,100661.35
2019-03-15T23:47:03.031Z,100668.77
2019-03-15T23:49:33.741Z,100667.30
2019-03-15T23:52:13.938Z,100660.84
2019-03-15T23:54:44.790Z,100657.73
2019-03-15T23:57:15.935Z,100663.17
2019-03-15T23:59:53.517Z,100651.64
